Youngsville, Louisiana
Current Conditions -  °F | °C
As of 12:53 AM on Thursday 23 Oct 2014 (Local Time) from KLFT Reporting Station
Clear Clear  
Wind Chill: 58°   Ceiling: Unl
Heat Index: 58°   Visibility: 10mi
Dew Point: 53°   Wind: 6mph
Humidity: 84%   Direction: 20°NNE
Pressure: 30.09"   Gusts: NA
Location:  30.1°N, 91.99°W
Report Text: KLFT 230553Z 02005KT 10SM CLR 14/12 A3009 RMK AO2 SLP189 T01440117 10206 20144 402720144 51002
Loading
Personal Weather Stations






























Interactive Weather Map
Tropical Storm Tracking
New forecast layout! Learn more

10-Day Weather Forecast

Advertisements
Track Severe Weather on mobile